Time;durP1;ratioP1;P1;durP2;ratioP2;P2;SDS_P1;SDS_P2;PMS_P1;PMS_P2;Temp;Humidity;BMP_temperature;BMP_pressure;BME280_temperature;BME280_humidity;BME280_pressure;Samples;Min_cycle;Max_cycle;Signal;HPM_P1;HPM_P2
2021/03/07 00:01:18;;;;;;;11.77;7.63;;;;;;;1.02;58.26;101586.00;5052964;28;20052;-86
2021/03/07 00:03:46;;;;;;;10.48;7.78;;;;;;;0.97;58.29;101581.59;5054264;28;20057;-86
2021/03/07 00:06:12;;;;;;;11.20;7.95;;;;;;;0.95;58.52;101591.13;5040095;28;20106;-88
2021/03/07 00:08:38;;;;;;;13.27;8.45;;;;;;;0.91;58.62;101579.81;5058053;28;20048;-86
2021/03/07 00:11:19;;;;;;;12.55;7.75;;;;;;;0.88;59.44;101577.16;5053316;28;20068;-87
2021/03/07 00:13:45;;;;;;;11.25;7.78;;;;;;;0.89;59.43;101572.81;5036409;28;20037;-88
2021/03/07 00:16:14;;;;;;;14.35;7.97;;;;;;;0.89;59.76;101576.31;5050584;28;20099;-86
2021/03/07 00:18:40;;;;;;;11.02;7.55;;;;;;;0.90;59.27;101577.19;5048962;28;20126;-86
2021/03/07 00:21:09;;;;;;;11.63;7.25;;;;;;;0.91;59.11;101576.34;5049448;28;20496;-83
2021/03/07 00:23:35;;;;;;;12.95;7.78;;;;;;;0.88;59.59;101569.34;5038803;28;20053;-86
2021/03/07 00:26:01;;;;;;;12.70;8.68;;;;;;;0.83;59.80;101562.31;5049157;28;20045;-84
2021/03/07 00:28:28;;;;;;;13.50;8.45;;;;;;;0.79;59.82;101563.16;5037732;28;20121;-85
2021/03/07 00:30:55;;;;;;;14.07;7.68;;;;;;;0.82;59.83;101571.88;5024137;28;20049;-86
2021/03/07 00:33:25;;;;;;;11.75;8.23;;;;;;;0.79;59.99;101565.78;5048684;28;20061;-86
2021/03/07 00:35:51;;;;;;;13.02;7.97;;;;;;;0.68;60.46;101557.81;5050400;28;20033;-88
2021/03/07 00:38:19;;;;;;;13.93;9.20;;;;;;;0.64;60.99;101569.03;5053599;28;20080;-85
2021/03/07 00:40:47;;;;;;;12.90;8.18;;;;;;;0.54;61.13;101555.03;5027903;28;20399;-86
2021/03/07 00:43:13;;;;;;;11.57;8.32;;;;;;;0.58;61.68;101561.16;5029616;28;20038;-86
2021/03/07 00:45:43;;;;;;;13.98;8.90;;;;;;;0.52;61.73;101558.47;5052390;28;20053;-87
2021/03/07 00:48:26;;;;;;;14.80;8.85;;;;;;;0.51;62.13;101562.81;5055961;28;20034;-86
2021/03/07 00:50:52;;;;;;;14.20;8.57;;;;;;;0.52;62.11;101553.25;5056647;28;20045;-84
2021/03/07 00:53:19;;;;;;;13.35;8.68;;;;;;;0.52;62.47;101554.13;5048555;28;20084;-83
2021/03/07 00:55:45;;;;;;;13.15;8.90;;;;;;;0.56;61.75;101555.94;5053776;28;20076;-84
2021/03/07 00:58:12;;;;;;;13.30;9.43;;;;;;;0.55;62.32;101554.19;5038211;28;20057;-84
2021/03/07 01:00:40;;;;;;;12.43;9.05;;;;;;;0.53;62.21;101545.47;5034831;28;20427;-83
2021/03/07 01:03:07;;;;;;;13.73;8.57;;;;;;;0.49;62.62;101554.09;5034455;28;20049;-83
2021/03/07 01:05:34;;;;;;;12.82;9.50;;;;;;;0.46;62.85;101550.59;5014880;28;20096;-85
2021/03/07 01:08:00;;;;;;;13.73;9.10;;;;;;;0.38;63.51;101542.66;5032184;28;20046;-87
2021/03/07 01:10:35;;;;;;;13.27;8.88;;;;;;;0.40;63.44;101542.69;5033500;28;20435;-84
2021/03/07 01:13:06;;;;;;;17.65;10.13;;;;;;;0.40;62.88;101543.56;5017619;28;20416;-85
2021/03/07 01:15:33;;;;;;;13.45;9.52;;;;;;;0.37;62.59;101537.44;5041163;28;20049;-84
2021/03/07 01:18:00;;;;;;;14.95;9.45;;;;;;;0.27;63.39;101532.13;5039544;28;20049;-84
2021/03/07 01:20:28;;;;;;;16.48;9.40;;;;;;;0.22;63.43;101536.38;5038215;28;20057;-84
2021/03/07 01:22:56;;;;;;;15.90;9.43;;;;;;;0.17;63.25;101524.16;5035808;28;20116;-85
2021/03/07 01:25:28;;;;;;;15.20;10.02;;;;;;;0.14;63.44;101529.34;5034566;28;20110;-86
2021/03/07 01:27:58;;;;;;;16.52;9.73;;;;;;;0.11;64.36;101524.06;5012548;28;20538;-86
2021/03/07 01:30:29;;;;;;;15.32;9.40;;;;;;;0.10;64.01;101523.19;5015183;28;20057;-84
2021/03/07 01:32:56;;;;;;;13.95;9.73;;;;;;;0.09;64.59;101523.19;5034782;28;20092;-84
2021/03/07 01:35:24;;;;;;;15.57;9.38;;;;;;;0.09;64.61;101518.84;5023650;28;20057;-84
2021/03/07 01:37:57;;;;;;;16.45;9.75;;;;;;;0.06;64.78;101511.00;5038517;28;20050;-85
2021/03/07 01:40:30;;;;;;;14.80;9.73;;;;;;;0.05;64.34;101509.22;5036107;28;20062;-84
2021/03/07 01:42:59;;;;;;;13.20;9.02;;;;;;;0.05;64.50;101509.22;5014119;28;20049;-85
2021/03/07 01:45:29;;;;;;;16.52;9.80;;;;;;;0.04;63.86;101507.47;5016286;28;20060;-86
2021/03/07 01:47:58;;;;;;;17.05;9.80;;;;;;;0.05;64.62;101508.34;5016194;28;20041;-86
2021/03/07 01:50:28;;;;;;;14.00;9.38;;;;;;;-0.01;64.83;101498.75;5017464;28;20757;-85
2021/03/07 01:52:55;;;;;;;13.75;9.15;;;;;;;-0.09;65.12;101484.75;5041607;28;20049;-86
2021/03/07 01:55:27;;;;;;;15.40;10.02;;;;;;;-0.02;65.13;101497.00;5051576;28;20045;-85
2021/03/07 01:58:04;;;;;;;13.52;10.30;;;;;;;-0.03;64.96;101493.53;5048327;28;20107;-84
2021/03/07 02:00:31;;;;;;;14.13;9.55;;;;;;;-0.03;65.01;101493.53;5036750;28;20080;-85
2021/03/07 02:02:59;;;;;;;14.48;9.60;;;;;;;-0.04;65.26;101491.78;5034218;28;20383;-85
2021/03/07 02:05:28;;;;;;;13.75;9.38;;;;;;;0.01;65.52;101489.22;5016834;28;20076;-86
2021/03/07 02:07:55;;;;;;;15.93;9.95;;;;;;;0.01;65.47;101491.81;5025763;28;20059;-86
2021/03/07 02:10:31;;;;;;;15.27;9.70;;;;;;;-0.04;65.63;101486.56;5047702;28;20462;-84
2021/03/07 02:13:02;;;;;;;15.02;10.57;;;;;;;-0.05;65.86;101482.22;5021761;28;20049;-84
2021/03/07 02:15:31;;;;;;;16.48;10.48;;;;;;;-0.03;66.33;101477.91;5036731;28;20053;-85
2021/03/07 02:17:59;;;;;;;14.73;9.70;;;;;;;-0.03;66.23;101474.41;5038904;28;20109;-86
2021/03/07 02:20:28;;;;;;;19.20;10.45;;;;;;;-0.05;66.41;101471.78;5051640;28;20693;-86
2021/03/07 02:22:59;;;;;;;16.02;9.80;;;;;;;-0.10;66.27;101462.16;5025194;28;20064;-85
2021/03/07 02:25:29;;;;;;;15.80;10.25;;;;;;;-0.10;66.58;101473.44;5004563;28;20552;-85
2021/03/07 02:27:58;;;;;;;12.80;7.68;;;;;;;-0.12;67.16;101469.06;5035432;28;20048;-86
2021/03/07 02:30:26;;;;;;;15.38;9.63;;;;;;;-0.12;66.61;101462.13;5017864;28;20084;-87
2021/03/07 02:33:07;;;;;;;20.02;11.00;;;;;;;-0.14;67.22;101460.34;5030457;28;20057;-83
2021/03/07 02:35:37;;;;;;;18.00;10.60;;;;;;;-0.18;67.41;101456.88;5034027;28;20049;-87
2021/03/07 02:38:06;;;;;;;12.13;7.70;;;;;;;-0.27;67.32;101456.72;5045649;28;20061;-87
2021/03/07 02:40:37;;;;;;;15.05;10.35;;;;;;;-0.32;67.58;101455.81;5043310;28;20109;-86
2021/03/07 02:43:12;;;;;;;15.30;10.80;;;;;;;-0.38;67.44;101446.16;5038925;28;20098;-86
2021/03/07 02:45:41;;;;;;;15.23;10.38;;;;;;;-0.39;67.73;101448.75;5033268;28;20041;-85
2021/03/07 02:48:15;;;;;;;17.92;10.98;;;;;;;-0.40;67.88;101447.88;5039099;28;20119;-88
2021/03/07 02:50:48;;;;;;;15.52;9.93;;;;;;;-0.38;67.55;101446.16;5042356;28;20072;-86
2021/03/07 02:53:22;;;;;;;14.60;8.98;;;;;;;-0.44;67.62;101425.25;5050574;28;20045;-86
2021/03/07 02:55:57;;;;;;;16.33;9.40;;;;;;;-0.40;67.26;101442.66;5035420;28;20084;-84
2021/03/07 02:58:24;;;;;;;14.75;9.95;;;;;;;-0.39;66.96;101439.22;5052607;28;20084;-85
2021/03/07 03:00:57;;;;;;;13.98;9.55;;;;;;;-0.39;67.20;101439.22;5052585;28;20030;-84
2021/03/07 03:03:28;;;;;;;14.48;9.55;;;;;;;-0.38;67.55;101443.56;5051290;28;20133;-85
2021/03/07 03:06:04;;;;;;;14.43;10.38;;;;;;;-0.39;67.77;101443.53;5051033;28;20053;-88
2021/03/07 03:08:32;;;;;;;14.95;9.65;;;;;;;-0.41;67.66;101434.84;5047701;28;20138;-86
2021/03/07 03:11:01;;;;;;;15.43;9.52;;;;;;;-0.42;67.20;101427.88;5037506;28;20057;-84
2021/03/07 03:13:37;;;;;;;14.45;9.48;;;;;;;-0.45;67.15;101427.84;5049513;28;20053;-84
2021/03/07 03:16:05;;;;;;;14.57;10.05;;;;;;;-0.45;67.68;101433.03;5049690;28;20116;-86
2021/03/07 03:18:34;;;;;;;16.48;9.85;;;;;;;-0.45;67.42;101431.31;5036834;28;20057;-85
2021/03/07 03:21:08;;;;;;;15.65;9.88;;;;;;;-0.48;67.87;101423.50;5036932;28;20101;-86
2021/03/07 03:23:35;;;;;;;15.52;9.85;;;;;;;-0.50;67.45;101425.19;5046009;28;20049;-87
2021/03/07 03:26:02;;;;;;;13.93;9.88;;;;;;;-0.52;68.28;101416.47;5050818;28;20055;-85
2021/03/07 03:28:29;;;;;;;13.60;9.80;;;;;;;-0.54;68.02;101415.59;5043725;28;20342;-83
2021/03/07 03:30:57;;;;;;;14.57;9.43;;;;;;;-0.57;67.50;101410.31;5039420;28;20050;-88
2021/03/07 03:33:27;;;;;;;16.08;9.90;;;;;;;-0.58;67.46;101410.31;5030125;28;20050;-88
2021/03/07 03:35:54;;;;;;;14.90;9.95;;;;;;;-0.62;67.69;101406.78;5046382;28;20112;-86
2021/03/07 03:38:43;;;;;;;14.57;9.55;;;;;;;-0.63;68.20;101407.63;5046951;28;20084;-85
2021/03/07 03:41:10;;;;;;;14.27;9.77;;;;;;;-0.63;68.47;101412.00;5045585;28;20148;-85
2021/03/07 03:43:55;;;;;;;16.88;10.57;;;;;;;-0.66;68.67;101407.59;5049189;28;20452;-85
2021/03/07 03:46:24;;;;;;;16.23;10.10;;;;;;;-0.65;68.96;101409.34;5055814;28;20136;-84
2021/03/07 03:48:59;;;;;;;15.70;10.02;;;;;;;-0.68;69.31;101408.44;5051474;28;20065;-85
2021/03/07 03:51:26;;;;;;;15.73;10.20;;;;;;;-0.70;68.73;101405.81;5052756;28;20056;-85
2021/03/07 03:53:55;;;;;;;17.42;10.57;;;;;;;-0.77;68.63;101403.94;5046778;28;20045;-86
2021/03/07 03:56:24;;;;;;;16.20;10.20;;;;;;;-0.80;68.93;101406.53;5047348;28;20052;-85
2021/03/07 03:58:52;;;;;;;13.98;10.00;;;;;;;-0.81;68.92;101407.38;5044254;28;20057;-85
2021/03/07 04:01:20;;;;;;;14.63;10.05;;;;;;;-0.84;69.11;101399.53;5053625;28;20055;-88
2021/03/07 04:03:52;;;;;;;15.63;10.77;;;;;;;-0.85;69.92;101400.38;5049383;28;20071;-85
2021/03/07 04:06:24;;;;;;;15.43;10.63;;;;;;;-0.82;69.88;101398.69;5025244;28;20205;-84
2021/03/07 04:08:53;;;;;;;17.23;10.73;;;;;;;-0.84;69.98;101402.13;5028805;28;20117;-87
2021/03/07 04:11:23;;;;;;;16.63;10.95;;;;;;;-0.84;70.09;101402.13;5034687;28;20053;-84
2021/03/07 04:13:56;;;;;;;17.73;10.30;;;;;;;-0.88;70.25;101398.59;5053278;28;20036;-83
2021/03/07 04:16:25;;;;;;;16.25;11.27;;;;;;;-0.92;70.50;101390.72;5053528;28;20087;-83
2021/03/07 04:18:52;;;;;;;18.17;11.18;;;;;;;-0.93;70.79;101399.38;5056838;28;20058;-84
2021/03/07 04:21:21;;;;;;;16.70;10.10;;;;;;;-0.93;70.67;101400.25;5047040;28;20474;-85
2021/03/07 04:23:47;;;;;;;17.67;11.25;;;;;;;-0.97;70.99;101397.59;5025523;28;20088;-84
2021/03/07 04:26:14;;;;;;;18.40;11.82;;;;;;;-1.02;71.37;101399.22;5021475;28;20069;-86
2021/03/07 04:28:43;;;;;;;18.52;11.85;;;;;;;-1.06;71.18;101399.19;5035907;28;20067;-88
2021/03/07 04:31:13;;;;;;;19.00;10.73;;;;;;;-1.11;72.08;101403.44;5034493;28;20464;-85
2021/03/07 04:33:42;;;;;;;18.65;11.98;;;;;;;-1.15;71.82;101404.25;5017210;28;20061;-87
2021/03/07 04:36:11;;;;;;;18.08;11.30;;;;;;;-1.10;72.18;101415.56;5036161;28;20459;-88
2021/03/07 04:38:39;;;;;;;20.80;11.57;;;;;;;-1.16;72.39;101420.69;5033647;28;20124;-85
2021/03/07 04:41:07;;;;;;;17.25;11.18;;;;;;;-1.17;71.97;101413.72;5036626;28;20045;-85
2021/03/07 04:43:49;;;;;;;18.23;11.50;;;;;;;-1.23;72.67;101408.41;5043423;28;20053;-84
2021/03/07 04:46:21;;;;;;;18.77;11.80;;;;;;;-1.21;72.81;101411.03;5026560;28;20046;-85
2021/03/07 04:48:49;;;;;;;18.33;11.77;;;;;;;-1.25;73.14;101412.69;5039926;28;20069;-84
2021/03/07 04:51:16;;;;;;;20.20;12.10;;;;;;;-1.25;72.85;101409.22;5021703;28;20045;-85
2021/03/07 04:53:54;;;;;;;18.25;11.43;;;;;;;-1.26;72.56;101403.16;5021483;28;20404;-84
2021/03/07 04:56:22;;;;;;;19.70;11.70;;;;;;;-1.28;73.03;101399.69;5037269;28;20057;-86
2021/03/07 04:58:49;;;;;;;19.33;11.73;;;;;;;-1.28;73.18;101396.22;5038410;28;20061;-86
2021/03/07 05:01:15;;;;;;;22.83;12.35;;;;;;;-1.27;73.44;101405.75;5025474;28;20076;-86
2021/03/07 05:03:43;;;;;;;18.67;12.07;;;;;;;-1.29;73.69;101392.75;5024529;28;20041;-85
2021/03/07 05:06:12;;;;;;;19.83;11.80;;;;;;;-1.25;73.22;101399.72;5045483;28;20072;-86
2021/03/07 05:08:40;;;;;;;19.25;11.88;;;;;;;-1.29;73.27;101400.53;5037023;28;20030;-84
2021/03/07 05:11:06;;;;;;;18.05;11.80;;;;;;;-1.29;73.44;101400.53;5036316;28;20061;-83
2021/03/07 05:13:33;;;;;;;16.98;12.20;;;;;;;-1.24;73.10;101405.78;5052026;28;20041;-84
2021/03/07 05:15:59;;;;;;;17.65;11.60;;;;;;;-1.25;72.94;101406.63;5050236;28;20053;-84
2021/03/07 05:18:28;;;;;;;20.70;12.00;;;;;;;-1.28;73.22;101404.00;5052882;28;20064;-84
2021/03/07 05:20:54;;;;;;;16.85;10.93;;;;;;;-1.33;73.55;101398.72;5054713;28;20075;-82
2021/03/07 05:23:21;;;;;;;16.77;10.93;;;;;;;-1.35;72.77;101403.00;5038255;28;20061;-83
2021/03/07 05:25:49;;;;;;;17.30;10.75;;;;;;;-1.38;73.01;101404.69;5055948;28;20053;-83
2021/03/07 05:28:22;;;;;;;15.10;10.85;;;;;;;-1.44;73.55;101408.06;5055212;28;20061;-82
2021/03/07 05:30:51;;;;;;;21.40;11.98;;;;;;;-1.45;73.89;101404.59;5062217;28;20109;-86
2021/03/07 05:33:19;;;;;;;18.50;11.43;;;;;;;-1.46;73.89;101409.75;5054481;28;20042;-85
2021/03/07 05:35:48;;;;;;;17.30;10.80;;;;;;;-1.49;73.58;101401.91;5055667;28;20110;-87
2021/03/07 05:38:20;;;;;;;17.52;10.10;;;;;;;-1.50;74.12;101392.34;5057454;28;20043;-85
2021/03/07 05:40:47;;;;;;;15.23;10.25;;;;;;;-1.49;73.67;101399.31;5056808;28;20049;-82
2021/03/07 05:43:24;;;;;;;19.38;11.40;;;;;;;-1.45;73.89;101398.50;5030531;28;20092;-84
2021/03/07 05:45:52;;;;;;;18.60;11.27;;;;;;;-1.47;73.64;101398.47;5050780;28;20528;-84
2021/03/07 05:48:28;;;;;;;17.52;10.68;;;;;;;-1.47;73.96;101397.59;5050878;28;20053;-85
2021/03/07 05:50:56;;;;;;;18.75;11.60;;;;;;;-1.54;74.60;101386.22;5052116;28;20084;-85
2021/03/07 05:53:25;;;;;;;16.77;11.30;;;;;;;-1.54;73.98;101398.34;5054985;28;20038;-87
2021/03/07 05:55:52;;;;;;;18.13;11.80;;;;;;;-1.55;74.64;101396.59;5054871;28;20059;-87
2021/03/07 05:58:20;;;;;;;18.20;11.27;;;;;;;-1.58;74.80;101393.94;5039612;28;20045;-85
2021/03/07 06:00:47;;;;;;;18.95;11.85;;;;;;;-1.62;74.28;101390.41;5052738;28;20029;-87
2021/03/07 06:03:15;;;;;;;16.23;11.18;;;;;;;-1.66;74.83;101401.59;5051128;28;20040;-85
2021/03/07 06:05:41;;;;;;;20.63;11.77;;;;;;;-1.64;74.97;101393.81;5038618;28;20049;-83
2021/03/07 06:08:08;;;;;;;21.30;11.80;;;;;;;-1.60;75.09;101393.03;5035559;28;20060;-87
2021/03/07 06:10:40;;;;;;;15.52;10.95;;;;;;;-1.57;75.11;101393.94;5052272;28;20105;-86
2021/03/07 06:13:12;;;;;;;16.38;11.20;;;;;;;-1.62;75.03;101393.03;5054957;28;20054;-88
2021/03/07 06:16:05;;;;;;;15.98;11.13;;;;;;;-1.58;75.32;101396.56;5040957;28;20071;-85
2021/03/07 06:18:45;;;;;;;16.25;10.85;;;;;;;-1.53;74.95;101392.28;5055570;28;20113;-82
2021/03/07 06:21:35;;;;;;;16.95;11.65;;;;;;;-1.51;74.76;101398.41;5053938;28;20060;-85
2021/03/07 06:24:02;;;;;;;22.65;12.02;;;;;;;-1.48;74.66;101403.66;5045928;28;20121;-85
2021/03/07 06:26:29;;;;;;;19.45;12.25;;;;;;;-1.46;74.96;101396.75;5038115;28;20029;-83
2021/03/07 06:29:11;;;;;;;18.90;11.88;;;;;;;-1.43;74.90;101389.91;5036371;28;20067;-84
2021/03/07 06:31:42;;;;;;;17.65;12.13;;;;;;;-1.33;74.78;101384.84;5031403;28;20092;-84
2021/03/07 06:34:09;;;;;;;19.60;12.50;;;;;;;-1.30;74.41;101383.19;5046219;28;20076;-86
2021/03/07 06:36:37;;;;;;;19.50;12.07;;;;;;;-1.25;74.20;101384.13;5048027;28;20080;-87
2021/03/07 06:39:07;;;;;;;20.35;11.95;;;;;;;-1.24;74.62;101380.69;5042680;28;20068;-85
2021/03/07 06:41:42;;;;;;;19.63;12.07;;;;;;;-1.21;74.58;101383.34;5027608;28;20072;-86
2021/03/07 06:44:12;;;;;;;19.00;11.85;;;;;;;-1.15;73.82;101383.44;5040893;28;20057;-87
2021/03/07 06:46:44;;;;;;;16.17;11.15;;;;;;;-1.12;74.37;101380.03;5021708;28;20053;-86
2021/03/07 06:49:28;;;;;;;17.10;11.23;;;;;;;-1.07;73.71;101379.22;5034159;28;20046;-85
2021/03/07 06:52:09;;;;;;;18.35;11.40;;;;;;;-1.00;73.59;101389.75;5024421;28;20053;-86
2021/03/07 06:54:36;;;;;;;16.45;11.40;;;;;;;-0.94;73.35;101384.63;5047811;28;20042;-84
2021/03/07 06:57:03;;;;;;;19.15;12.07;;;;;;;-0.89;72.83;101382.97;5050513;28;20109;-82
2021/03/07 06:59:29;;;;;;;18.95;11.80;;;;;;;-0.88;73.46;101376.91;5033951;28;20156;-83
2021/03/07 07:01:57;;;;;;;16.75;10.88;;;;;;;-0.80;72.94;101385.72;5014434;28;20136;-84
2021/03/07 07:04:37;;;;;;;20.00;11.38;;;;;;;-0.70;72.20;101377.19;5035988;28;20111;-84
2021/03/07 07:07:13;;;;;;;14.55;10.32;;;;;;;-0.58;71.90;101376.47;5034823;28;20997;-87
2021/03/07 07:09:40;;;;;;;14.85;10.50;;;;;;;-0.44;71.13;101382.75;5037151;28;20055;-85
2021/03/07 07:12:29;;;;;;;17.10;11.60;;;;;;;-0.13;70.69;101371.00;5036132;28;20050;-85
2021/03/07 07:15:11;;;;;;;16.92;10.23;;;;;;;0.42;68.96;101367.28;5017732;28;20060;-84
2021/03/07 07:17:37;;;;;;;16.88;10.50;;;;;;;1.14;66.28;101367.88;5035977;28;20053;-84
2021/03/07 07:20:07;;;;;;;20.30;10.68;;;;;;;1.65;63.65;101362.09;5023059;28;20057;-84
2021/03/07 07:22:35;;;;;;;15.30;9.95;;;;;;;2.13;62.73;101361.41;5045896;28;20060;-85
2021/03/07 07:25:03;;;;;;;15.10;9.98;;;;;;;2.81;60.29;101358.03;5053085;28;20083;-85
2021/03/07 07:27:30;;;;;;;13.95;9.00;;;;;;;3.16;59.95;101361.47;5052128;28;20048;-84
2021/03/07 07:29:56;;;;;;;16.20;9.57;;;;;;;3.34;58.15;101347.47;5045557;28;20054;-86
2021/03/07 07:32:52;;;;;;;13.35;9.00;;;;;;;3.53;55.79;101350.91;5055184;28;20061;-85
2021/03/07 07:35:26;;;;;;;12.55;8.82;;;;;;;3.49;54.67;101344.81;5052887;28;20053;-88
2021/03/07 07:38:03;;;;;;;12.55;8.65;;;;;;;3.66;54.85;101356.97;5035179;28;20049;-86
2021/03/07 07:40:45;;;;;;;13.55;9.10;;;;;;;3.87;53.56;101342.06;5002107;28;20133;-83
2021/03/07 07:43:12;;;;;;;12.38;8.13;;;;;;;4.18;53.06;101344.53;5022801;28;20115;-84
2021/03/07 07:45:39;;;;;;;11.82;8.20;;;;;;;4.65;52.36;101332.84;5037669;28;20053;-85
2021/03/07 07:48:08;;;;;;;11.52;8.57;;;;;;;5.16;50.61;101337.63;5020618;28;20053;-84
2021/03/07 07:50:38;;;;;;;15.27;8.27;;;;;;;5.45;50.00;101339.97;5030808;28;20167;-85
2021/03/07 07:53:13;;;;;;;11.43;8.18;;;;;;;5.70;48.21;101340.53;5053257;28;20033;-86
2021/03/07 07:55:49;;;;;;;11.13;7.93;;;;;;;5.70;47.48;101340.53;5046448;28;20045;-85
2021/03/07 07:58:35;;;;;;;13.70;7.90;;;;;;;5.16;48.65;101353.41;5023495;28;20045;-84
2021/03/07 08:01:08;;;;;;;12.10;7.97;;;;;;;4.69;49.75;101335.44;5040250;28;20053;-83
2021/03/07 08:03:37;;;;;;;10.05;7.90;;;;;;;4.55;50.47;101338.16;5022079;28;20140;-83
2021/03/07 08:06:06;;;;;;;13.13;8.18;;;;;;;4.77;50.54;101344.09;5045644;28;20354;-84
2021/03/07 08:08:40;;;;;;;12.25;8.70;;;;;;;4.93;50.86;101343.09;5043120;28;20053;-84
2021/03/07 08:11:21;;;;;;;13.40;8.73;;;;;;;5.05;50.78;101341.22;5043036;28;20050;-84
2021/03/07 08:13:56;;;;;;;11.07;7.90;;;;;;;5.04;51.23;101331.59;5043968;28;20045;-83
2021/03/07 08:16:42;;;;;;;12.68;8.23;;;;;;;5.17;49.61;101328.88;5018905;28;20046;-84
2021/03/07 08:19:30;;;;;;;10.13;7.53;;;;;;;5.15;49.38;101325.41;5045166;28;20046;-86
2021/03/07 08:22:06;;;;;;;12.25;8.02;;;;;;;5.25;48.71;101315.66;5046368;28;20065;-83
2021/03/07 08:24:56;;;;;;;11.38;7.50;;;;;;;5.82;48.07;101308.88;5047034;28;20129;-84
2021/03/07 08:27:33;;;;;;;9.80;7.78;;;;;;;5.97;46.88;101303.44;5034680;28;20041;-85
2021/03/07 08:29:59;;;;;;;10.50;7.90;;;;;;;6.09;46.36;101306.78;5042278;28;20049;-84
2021/03/07 08:32:31;;;;;;;11.10;7.97;;;;;;;6.52;46.10;101299.97;5041288;28;20053;-83
2021/03/07 08:35:09;;;;;;;11.00;7.53;;;;;;;6.91;44.87;101308.13;5021227;28;20063;-85
2021/03/07 08:37:39;;;;;;;10.13;7.20;;;;;;;7.31;43.02;101301.22;5044608;28;20049;-82
2021/03/07 08:40:31;;;;;;;10.07;7.22;;;;;;;7.69;42.07;101308.38;5041540;28;20049;-83
2021/03/07 08:43:21;;;;;;;10.18;6.90;;;;;;;7.51;41.64;101310.50;5019158;28;20132;-82
2021/03/07 08:46:02;;;;;;;8.63;6.85;;;;;;;7.25;41.96;101296.03;5021510;28;20045;-83
2021/03/07 08:48:30;;;;;;;9.50;7.30;;;;;;;6.46;42.86;101297.44;5015415;28;20111;-83
2021/03/07 08:50:57;;;;;;;11.10;7.35;;;;;;;5.48;44.95;101294.41;5029751;28;20053;-81
2021/03/07 08:53:46;;;;;;;10.65;7.53;;;;;;;4.59;48.17;101292.66;5034079;28;20058;-85
2021/03/07 08:56:15;;;;;;;;;;;;;;;4.08;48.78;101304.41;5033734;28;21069;-84
2021/03/07 08:58:46;;;;;;;11.48;7.40;;;;;;;3.78;50.06;101288.81;5035624;28;20591;-84
2021/03/07 09:01:14;;;;;;;9.57;7.47;;;;;;;3.66;50.69;101289.75;5017607;28;20056;-86
2021/03/07 09:03:40;;;;;;;11.10;6.82;;;;;;;3.58;50.76;101285.44;5043412;28;20520;-84
2021/03/07 09:06:11;;;;;;;10.43;7.53;;;;;;;3.45;50.02;101284.63;5023187;28;20049;-86
2021/03/07 09:08:37;;;;;;;12.90;7.80;;;;;;;3.38;49.61;101278.53;5023696;28;20050;-85
2021/03/07 09:11:08;;;;;;;8.93;6.63;;;;;;;3.39;50.26;101284.63;5028536;28;20057;-84
2021/03/07 09:13:45;;;;;;;;;;;;;;;3.37;50.75;101283.75;5018420;28;20057;-85
2021/03/07 09:16:16;;;;;;;9.60;6.97;;;;;;;3.41;50.71;101270.66;5033604;28;19971;-84
2021/03/07 09:18:51;;;;;;;10.18;7.22;;;;;;;3.54;51.57;101263.63;5033712;28;20124;-85
2021/03/07 09:21:18;;;;;;;8.02;6.53;;;;;;;3.64;50.58;101262.69;5034265;28;20063;-84
2021/03/07 09:23:49;;;;;;;13.75;6.97;;;;;;;3.76;50.41;101253.94;5038369;28;20056;-85
2021/03/07 09:26:18;;;;;;;9.57;7.07;;;;;;;3.90;50.20;101244.22;5037613;28;20125;-85
2021/03/07 09:28:53;;;;;;;11.48;7.47;;;;;;;4.03;50.29;101239.78;5037256;28;20055;-80
2021/03/07 09:31:23;;;;;;;11.60;8.15;;;;;;;4.14;50.08;101237.94;5040417;28;20176;-83
2021/03/07 09:34:00;;;;;;;13.07;7.25;;;;;;;4.22;50.12;101234.41;5023923;28;20045;-84
2021/03/07 09:36:29;;;;;;;11.52;7.80;;;;;;;4.39;50.21;101233.41;5021198;28;20053;-83
2021/03/07 09:39:09;;;;;;;10.55;7.68;;;;;;;4.60;49.62;101230.56;5034652;28;20839;-84
2021/03/07 09:41:49;;;;;;;12.70;8.32;;;;;;;4.79;49.34;101233.88;5037330;28;20152;-86
2021/03/07 09:44:18;;;;;;;10.88;7.25;;;;;;;4.90;47.67;101230.25;5036785;28;20056;-84
2021/03/07 09:46:46;;;;;;;8.85;7.10;;;;;;;4.96;46.19;101224.09;5041834;28;20057;-85
2021/03/07 09:49:19;;;;;;;9.55;7.15;;;;;;;5.02;46.26;101223.16;5038169;28;20127;-84
2021/03/07 09:51:50;;;;;;;10.10;6.88;;;;;;;5.06;46.99;101223.09;5051394;28;20041;-85
2021/03/07 09:54:18;;;;;;;10.80;7.45;;;;;;;5.20;46.31;101223.78;5052248;28;20033;-82
2021/03/07 09:56:52;;;;;;;;;;;;;;;5.33;45.57;101221.91;5054248;28;20056;-86
2021/03/07 09:59:27;;;;;;;9.77;7.38;;;;;;;5.41;45.33;101217.41;5033885;28;19969;-83
2021/03/07 10:02:10;;;;;;;10.02;6.30;;;;;;;5.54;44.56;101207.63;5049041;28;20033;-84
2021/03/07 10:04:45;;;;;;;9.88;6.57;;;;;;;5.72;44.65;101206.50;5035702;28;20056;-84
2021/03/07 10:07:17;;;;;;;11.45;6.93;;;;;;;5.83;43.80;101204.56;5042565;28;20109;-83
2021/03/07 10:09:56;;;;;;;9.80;6.70;;;;;;;5.87;42.68;101199.25;5045221;28;20053;-80
2021/03/07 10:12:24;;;;;;;7.88;6.15;;;;;;;5.93;42.14;101196.59;5045027;28;20044;-84
2021/03/07 10:14:53;;;;;;;7.90;6.07;;;;;;;6.05;42.16;101195.53;5028359;28;20076;-86
2021/03/07 10:17:34;;;;;;;8.23;6.18;;;;;;;6.17;42.33;101192.69;5037104;28;20080;-81
2021/03/07 10:20:03;;;;;;;;;;;;;;;6.38;42.38;101188.84;5041151;28;20064;-85
2021/03/07 10:22:42;;;;;;;10.00;6.90;;;;;;;6.50;43.78;101188.63;5038309;28;19925;-84
2021/03/07 10:25:26;;;;;;;11.07;7.32;;;;;;;6.65;44.49;101188.34;5030747;28;20049;-80
2021/03/07 10:27:57;;;;;;;9.00;5.65;;;;;;;6.74;40.60;101182.06;5027678;28;20437;-86
2021/03/07 10:30:37;;;;;;;10.10;5.68;;;;;;;6.78;39.65;101180.22;5026103;28;20053;-83
2021/03/07 10:33:25;;;;;;;7.20;5.63;;;;;;;6.76;38.55;101179.41;5045276;28;20546;-82
2021/03/07 10:36:19;;;;;;;8.15;5.40;;;;;;;6.80;37.63;101170.53;5047345;28;20064;-87
2021/03/07 10:38:51;;;;;;;6.97;5.38;;;;;;;6.76;37.59;101160.97;5045561;28;20072;-85
2021/03/07 10:41:31;;;;;;;7.40;5.47;;;;;;;6.82;37.77;101159.06;5034176;28;20048;-85
2021/03/07 10:44:00;;;;;;;9.02;5.32;;;;;;;6.96;37.42;101151.75;5044777;28;20057;-84
2021/03/07 10:46:33;;;;;;;7.45;5.32;;;;;;;6.93;36.68;101145.69;5033085;28;20051;-83
2021/03/07 10:49:19;;;;;;;6.43;5.20;;;;;;;6.89;37.14;101149.31;5021991;28;20127;-82
2021/03/07 10:51:47;;;;;;;8.13;5.60;;;;;;;6.97;37.67;101142.97;5035841;28;20072;-84
2021/03/07 10:54:18;;;;;;;6.95;5.05;;;;;;;7.06;36.61;101152.47;5027477;28;20068;-83
2021/03/07 10:56:47;;;;;;;8.65;5.65;;;;;;;7.06;37.06;101147.19;5041245;28;20053;-83
2021/03/07 10:59:14;;;;;;;6.72;5.30;;;;;;;7.17;37.53;101139.94;5023751;28;20050;-84
2021/03/07 11:01:43;;;;;;;9.00;6.38;;;;;;;7.31;39.79;101137.88;5029207;28;20109;-81
2021/03/07 11:04:10;;;;;;;10.77;6.88;;;;;;;7.53;39.69;101124.22;5031502;28;20140;-85
2021/03/07 11:06:37;;;;;;;9.07;6.15;;;;;;;7.71;39.18;101127.28;5051469;28;20060;-86
2021/03/07 11:09:04;;;;;;;8.80;5.82;;;;;;;7.86;39.16;101117.28;5051246;28;20048;-84
2021/03/07 11:11:34;;;;;;;8.55;5.70;;;;;;;7.99;38.86;101110.81;5047405;28;20064;-85
2021/03/07 11:14:02;;;;;;;9.48;6.07;;;;;;;8.05;38.41;101111.50;5049403;28;20060;-85
2021/03/07 11:16:29;;;;;;;7.43;6.00;;;;;;;7.98;37.57;101111.72;5029971;28;20030;-84
2021/03/07 11:19:15;;;;;;;9.35;6.35;;;;;;;8.06;38.50;101112.38;5049498;28;20065;-85
2021/03/07 11:21:43;;;;;;;11.57;6.15;;;;;;;8.14;38.37;101106.91;5033941;28;20056;-87
2021/03/07 11:24:10;;;;;;;8.13;6.30;;;;;;;8.12;37.06;101114.88;5053226;28;20037;-86
2021/03/07 11:26:37;;;;;;;6.93;5.78;;;;;;;8.12;37.71;101109.59;5053927;28;20125;-84
2021/03/07 11:29:04;;;;;;;8.05;5.85;;;;;;;8.21;36.43;101111.97;5054279;28;20222;-84
2021/03/07 11:31:31;;;;;;;7.55;5.60;;;;;;;8.19;36.76;101108.50;5035552;28;20101;-85
2021/03/07 11:34:05;;;;;;;6.65;5.55;;;;;;;8.27;35.82;101103.91;5028288;28;20060;-84
2021/03/07 11:36:34;;;;;;;9.63;6.75;;;;;;;8.21;35.05;101092.63;5031412;28;20045;-84
2021/03/07 11:39:02;;;;;;;8.57;5.57;;;;;;;8.12;35.04;101092.91;5034436;28;20067;-83
2021/03/07 11:41:29;;;;;;;7.68;5.28;;;;;;;8.14;35.17;101096.38;5037640;28;20065;-85